Time,TemperatureF,DewpointF,PressureIn,WindDirection,WindDirectionDegrees,WindSpeedMPH,WindSpeedGustMPH,Humidity,HourlyPrecipIn,Conditions,Clouds,dailyrainin,SolarRadiationWatts/m^2,SoftwareType,DateUTC
2013-11-21 00:00:00,73.3,72.7,29.86,SE,141,2.0,7.2,98,0.00,,---,0.00,0.00,VWS V14.01,2013-11-21 06:00:00,
2013-11-21 00:02:00,73.7,73.1,29.84,SSE,152,6.0,7.2,98,0.00,,---,0.00,0.00,VWS V14.01,2013-11-21 06:02:00,
2013-11-21 00:05:00,73.3,72.7,29.86,SE,141,1.0,7.2,98,0.00,,---,0.00,0.00,VWS V14.01,2013-11-21 06:05:00,
2013-11-21 00:07:00,73.7,73.1,29.84,SSE,161,8.0,10.2,98,0.00,,---,0.00,0.00,VWS V14.01,2013-11-21 06:07:00,
2013-11-21 00:10:00,73.3,72.7,29.86,SSE,148,0.0,7.2,98,0.00,,---,0.00,0.00,VWS V14.01,2013-11-21 06:10:00,
2013-11-21 00:12:00,73.5,72.9,29.84,SSE,154,4.0,7.2,98,0.00,,---,0.00,0.00,VWS V14.01,2013-11-21 06:12:00,
2013-11-21 00:15:00,73.3,73.0,29.86,SSE,150,4.0,8.2,99,0.00,,---,0.00,0.00,VWS V14.01,2013-11-21 06:15:00,
2013-11-21 00:17:00,73.3,72.7,29.85,SE,145,6.0,7.2,98,0.00,,---,0.00,0.00,VWS V14.01,2013-11-21 06:17:00,
2013-11-21 00:20:00,73.3,72.7,29.86,SSE,152,3.0,7.2,98,0.00,,---,0.00,0.00,VWS V14.01,2013-11-21 06:20:00,
2013-11-21 00:22:00,73.3,72.7,29.85,SE,142,5.0,11.2,98,0.00,,---,0.00,0.00,VWS V14.01,2013-11-21 06:22:00,
2013-11-21 00:25:00,73.3,72.7,29.86,SSE,153,4.0,7.2,98,0.00,,---,0.00,0.00,VWS V14.01,2013-11-21 06:25:00,
2013-11-21 00:27:00,73.5,72.9,29.85,SE,144,3.0,5.2,98,0.00,,---,0.00,0.00,VWS V14.01,2013-11-21 06:27:00,
2013-11-21 00:30:00,73.2,72.9,29.85,SSE,153,3.0,8.2,99,0.00,,---,0.00,0.00,VWS V14.01,2013-11-21 06:30:00,
2013-11-21 00:32:00,73.5,72.9,29.85,SE,138,3.0,6.2,98,0.00,,---,0.00,0.00,VWS V14.01,2013-11-21 06:32:00,
2013-11-21 00:35:00,73.2,72.9,29.85,SSE,155,3.0,7.2,99,0.00,,---,0.00,0.00,VWS V14.01,2013-11-21 06:35:00,
2013-11-21 00:37:00,73.3,72.7,29.85,SE,139,4.0,6.2,98,0.00,,---,0.00,0.00,VWS V14.01,2013-11-21 06:37:00,
2013-11-21 00:40:00,73.0,72.7,29.85,SSE,151,5.0,8.2,99,0.00,,---,0.00,0.00,VWS V14.01,2013-11-21 06:40:00,
2013-11-21 00:42:00,73.3,72.7,29.85,SE,146,2.0,3.2,98,0.00,,---,0.00,0.00,VWS V14.01,2013-11-21 06:42:00,
2013-11-21 00:45:00,73.0,72.7,29.85,SSE,151,1.0,6.2,99,0.00,,---,0.00,0.00,VWS V14.01,2013-11-21 06:45:00,
2013-11-21 00:47:00,73.3,72.7,29.85,SE,141,3.0,8.2,98,0.00,,---,0.00,0.00,VWS V14.01,2013-11-21 06:47:00,
2013-11-21 00:50:00,73.0,72.7,29.85,SSE,151,1.0,5.2,99,0.00,,---,0.00,0.00,VWS V14.01,2013-11-21 06:50:00,
2013-11-21 00:52:00,73.3,72.7,29.85,SE,146,3.0,7.2,98,0.00,,---,0.00,0.00,VWS V14.01,2013-11-21 06:52:00,
2013-11-21 00:55:00,72.8,72.5,29.85,SSE,151,2.0,5.2,99,0.00,,---,0.00,0.00,VWS V14.01,2013-11-21 06:55:00,
2013-11-21 00:57:00,73.3,72.7,29.85,SSE,147,5.0,7.2,98,0.00,,---,0.00,0.00,VWS V14.01,2013-11-21 06:57:00,
2013-11-21 01:00:00,72.8,72.5,29.85,SSE,151,2.0,5.2,99,0.00,,---,0.00,0.00,VWS V14.01,2013-11-21 07:00:00,
2013-11-21 01:02:00,73.3,72.7,29.86,SE,141,2.0,3.2,98,0.00,,---,0.00,0.00,VWS V14.01,2013-11-21 07:02:00,
2013-11-21 01:05:00,72.7,72.4,29.85,SSE,151,2.0,6.2,99,0.00,,---,0.00,0.00,VWS V14.01,2013-11-21 07:05:00,
2013-11-21 01:07:00,73.3,72.7,29.86,SE,141,2.0,3.2,98,0.00,,---,0.00,0.00,VWS V14.01,2013-11-21 07:07:00,
2013-11-21 01:10:00,72.8,72.5,29.85,SSE,151,2.0,6.2,99,0.00,,---,0.00,0.00,VWS V14.01,2013-11-21 07:10:00,
2013-11-21 01:12:00,73.3,72.7,29.86,SSE,148,2.0,3.2,98,0.00,,---,0.00,0.00,VWS V14.01,2013-11-21 07:12:00,
2013-11-21 01:15:00,72.8,72.5,29.85,SSE,151,4.0,7.2,99,0.00,,---,0.00,0.00,VWS V14.01,2013-11-21 07:15:00,
2013-11-21 01:17:00,73.3,73.0,29.85,SSE,150,3.0,5.2,99,0.00,,---,0.00,0.00,VWS V14.01,2013-11-21 07:17:00,
2013-11-21 01:20:00,73.0,72.7,29.85,SSE,150,4.0,7.2,99,0.00,,---,0.00,0.00,VWS V14.01,2013-11-21 07:20:00,
2013-11-21 01:22:00,73.3,72.7,29.85,SSE,152,4.0,5.2,98,0.00,,---,0.00,0.00,VWS V14.01,2013-11-21 07:22:00,
2013-11-21 01:25:00,73.0,72.7,29.85,SSE,149,5.0,7.2,99,0.00,,---,0.00,0.00,VWS V14.01,2013-11-21 07:25:00,
2013-11-21 01:27:00,73.3,72.7,29.85,SSE,153,2.0,5.2,98,0.00,,---,0.00,0.00,VWS V14.01,2013-11-21 07:27:00,
2013-11-21 01:30:00,73.0,72.7,29.84,SE,139,4.0,7.2,99,0.00,,---,0.00,0.00,VWS V14.01,2013-11-21 07:30:00,
2013-11-21 01:31:00,73.2,72.9,29.85,SSE,153,3.0,5.2,99,0.00,,---,0.00,0.00,VWS V14.01,2013-11-21 07:31:00,
2013-11-21 01:35:00,73.0,72.7,29.84,SSE,159,2.0,8.2,99,0.00,,---,0.00,0.00,VWS V14.01,2013-11-21 07:35:00,
2013-11-21 01:36:00,73.2,72.9,29.85,SSE,155,2.0,4.2,99,0.00,,---,0.00,0.00,VWS V14.01,2013-11-21 07:36:00,
2013-11-21 01:40:00,73.2,72.9,29.84,SSE,156,7.0,11.2,99,0.00,,---,0.00,0.00,VWS V14.01,2013-11-21 07:40:00,
2013-11-21 01:41:00,73.0,72.7,29.85,SSE,151,4.0,6.2,99,0.00,,---,0.00,0.00,VWS V14.01,2013-11-21 07:41:00,
2013-11-21 01:45:00,73.3,73.0,29.84,SSE,153,3.0,8.2,99,0.00,,---,0.00,0.00,VWS V14.01,2013-11-21 07:45:00,
2013-11-21 01:46:00,73.0,72.7,29.85,SSE,151,1.0,2.2,99,0.00,,---,0.00,0.00,VWS V14.01,2013-11-21 07:46:00,
2013-11-21 01:50:00,73.5,73.2,29.84,SE,132,2.0,10.2,99,0.00,,---,0.00,0.00,VWS V14.01,2013-11-21 07:50:00,
2013-11-21 01:51:00,73.0,72.7,29.85,SSE,151,0.0,2.2,99,0.00,,---,0.00,0.00,VWS V14.01,2013-11-21 07:51:00,
2013-11-21 01:55:00,73.5,73.2,29.84,ESE,123,2.0,10.2,99,0.00,,---,0.00,0.00,VWS V14.01,2013-11-21 07:55:00,
2013-11-21 01:56:00,72.8,72.5,29.85,SSE,151,2.0,5.2,99,0.00,,---,0.00,0.00,VWS V14.01,2013-11-21 07:56:00,
2013-11-21 02:00:00,73.5,73.2,29.84,SSE,152,10.0,11.2,99,0.00,,---,0.00,0.00,VWS V14.01,2013-11-21 08:00:00,
2013-11-21 02:01:00,72.8,72.5,29.85,SSE,151,0.0,3.2,99,0.00,,---,0.00,0.00,VWS V14.01,2013-11-21 08:01:00,
2013-11-21 02:05:00,73.7,73.4,29.84,South,169,3.0,11.2,99,0.00,,---,0.00,0.00,VWS V14.01,2013-11-21 08:05:00,
2013-11-21 02:06:00,72.7,72.4,29.85,SSE,151,3.0,4.2,99,0.00,,---,0.00,0.00,VWS V14.01,2013-11-21 08:06:00,
2013-11-21 02:10:00,73.7,73.4,29.84,SSE,150,6.0,11.2,99,0.00,,---,0.00,0.00,VWS V14.01,2013-11-21 08:10:00,
2013-11-21 02:11:00,72.8,72.5,29.85,SSE,151,2.0,3.2,99,0.00,,---,0.00,0.00,VWS V14.01,2013-11-21 08:11:00,
2013-11-21 02:15:00,73.9,73.6,29.84,SE,139,5.0,11.2,99,0.00,,---,0.00,0.00,VWS V14.01,2013-11-21 08:15:00,
2013-11-21 02:16:00,72.8,72.5,29.85,SSE,151,2.0,5.2,99,0.00,,---,0.00,0.00,VWS V14.01,2013-11-21 08:16:00,
2013-11-21 02:20:00,73.9,73.6,29.84,SE,145,5.0,11.2,99,0.00,,---,0.00,0.00,VWS V14.01,2013-11-21 08:20:00,
2013-11-21 02:21:00,73.0,72.7,29.85,SSE,150,3.0,5.2,99,0.00,,---,0.00,0.00,VWS V14.01,2013-11-21 08:21:00,
2013-11-21 02:25:00,73.9,73.6,29.84,SSE,156,7.0,12.2,99,0.00,,---,0.00,0.00,VWS V14.01,2013-11-21 08:25:00,
2013-11-21 02:26:00,73.0,72.7,29.85,SSE,149,4.0,6.2,99,0.00,,---,0.00,0.00,VWS V14.01,2013-11-21 08:26:00,
2013-11-21 02:30:00,74.0,73.7,29.84,SSE,161,0.0,11.2,99,0.00,,---,0.00,0.00,VWS V14.01,2013-11-21 08:30:00,
2013-11-21 02:31:00,73.0,72.7,29.84,SE,140,5.0,7.2,99,0.00,,---,0.00,0.00,VWS V14.01,2013-11-21 08:31:00,
2013-11-21 02:35:00,74.0,73.7,29.84,SSE,167,2.0,10.2,99,0.00,,---,0.00,0.00,VWS V14.01,2013-11-21 08:35:00,
2013-11-21 02:36:00,73.0,72.7,29.84,SSE,160,1.0,3.2,99,0.00,,---,0.00,0.00,VWS V14.01,2013-11-21 08:36:00,
2013-11-21 02:40:00,74.0,73.7,29.84,SSE,162,3.0,10.2,99,0.00,,---,0.00,0.00,VWS V14.01,2013-11-21 08:40:00,
2013-11-21 02:41:00,73.2,72.9,29.84,SSE,156,3.0,8.2,99,0.00,,---,0.00,0.00,VWS V14.01,2013-11-21 08:41:00,
2013-11-21 02:45:00,74.0,73.7,29.84,SSE,155,4.0,11.2,99,0.00,,---,0.00,0.00,VWS V14.01,2013-11-21 08:45:00,
2013-11-21 02:46:00,73.3,73.0,29.84,SSE,153,4.0,6.2,99,0.00,,---,0.00,0.00,VWS V14.01,2013-11-21 08:46:00,
2013-11-21 02:50:00,73.9,73.6,29.84,SE,144,1.0,11.2,99,0.00,,---,0.00,0.00,VWS V14.01,2013-11-21 08:50:00,
2013-11-21 02:51:00,73.5,73.2,29.84,SE,132,1.0,3.2,99,0.00,,---,0.00,0.00,VWS V14.01,2013-11-21 08:51:00,
2013-11-21 02:55:00,73.9,73.6,29.84,SSE,153,2.0,7.2,99,0.00,,---,0.00,0.00,VWS V14.01,2013-11-21 08:55:00,
2013-11-21 02:56:00,73.5,73.2,29.84,ESE,123,3.0,4.2,99,0.00,,---,0.00,0.00,VWS V14.01,2013-11-21 08:56:00,
2013-11-21 03:00:00,73.9,73.6,29.84,South,169,7.0,8.2,99,0.00,,---,0.00,0.00,VWS V14.01,2013-11-21 09:00:00,
2013-11-21 03:01:00,73.5,73.2,29.84,SSE,150,6.0,11.2,99,0.00,,---,0.00,0.00,VWS V14.01,2013-11-21 09:01:00,
2013-11-21 03:05:00,73.9,73.6,29.84,SSE,155,5.0,8.2,99,0.00,,---,0.00,0.00,VWS V14.01,2013-11-21 09:05:00,
2013-11-21 03:06:00,73.7,73.4,29.84,SSE,168,5.0,6.2,99,0.00,,---,0.00,0.00,VWS V14.01,2013-11-21 09:06:00,
2013-11-21 03:10:00,73.9,73.6,29.84,SSE,158,1.0,6.2,99,0.00,,---,0.00,0.00,VWS V14.01,2013-11-21 09:10:00,
2013-11-21 03:11:00,73.7,73.4,29.84,SSE,153,10.0,11.2,99,0.00,,---,0.00,0.00,VWS V14.01,2013-11-21 09:11:00,
2013-11-21 03:15:00,73.9,73.6,29.85,SSE,158,1.0,6.2,99,0.00,,---,0.00,0.00,VWS V14.01,2013-11-21 09:15:00,
2013-11-21 03:16:00,73.9,73.6,29.84,SE,136,9.0,10.2,99,0.00,,---,0.00,0.00,VWS V14.01,2013-11-21 09:16:00,
2013-11-21 03:20:00,73.7,73.4,29.85,SSE,158,0.0,5.2,99,0.00,,---,0.00,0.00,VWS V14.01,2013-11-21 09:20:00,
2013-11-21 03:21:00,73.9,73.6,29.84,SE,145,3.0,6.2,99,0.00,,---,0.00,0.00,VWS V14.01,2013-11-21 09:21:00,
2013-11-21 03:25:00,73.7,73.4,29.85,SSE,158,2.0,5.2,99,0.00,,---,0.00,0.00,VWS V14.01,2013-11-21 09:25:00,
2013-11-21 03:26:00,73.9,73.6,29.84,SE,139,9.0,10.2,99,0.00,,---,0.00,0.00,VWS V14.01,2013-11-21 09:26:00,
2013-11-21 03:30:00,73.5,73.2,29.85,SSE,158,3.0,6.2,99,0.00,,---,0.00,0.00,VWS V14.01,2013-11-21 09:30:00,
2013-11-21 03:31:00,74.0,73.7,29.84,SSE,161,2.0,3.2,99,0.00,,---,0.00,0.00,VWS V14.01,2013-11-21 09:31:00,
2013-11-21 03:35:00,73.5,73.2,29.85,SSE,158,1.0,5.2,99,0.00,,---,0.00,0.00,VWS V14.01,2013-11-21 09:35:00,
2013-11-21 03:36:00,74.0,73.7,29.84,SSE,157,6.0,7.2,99,0.00,,---,0.00,0.00,VWS V14.01,2013-11-21 09:36:00,
2013-11-21 03:40:00,73.5,73.2,29.85,SSE,158,3.0,5.2,99,0.00,,---,0.00,0.00,VWS V14.01,2013-11-21 09:40:00,
2013-11-21 03:41:00,74.0,73.7,29.84,SSE,162,4.0,5.2,99,0.00,,---,0.00,0.00,VWS V14.01,2013-11-21 09:41:00,
2013-11-21 03:45:00,73.5,73.2,29.86,SSE,158,3.0,6.2,99,0.00,,---,0.00,0.00,VWS V14.01,2013-11-21 09:45:00,
2013-11-21 03:46:00,74.0,73.7,29.84,SSE,155,5.0,8.2,99,0.00,,---,0.00,0.00,VWS V14.01,2013-11-21 09:46:00,
2013-11-21 03:50:00,73.5,73.2,29.86,SSE,158,4.0,5.2,99,0.00,,---,0.00,0.00,VWS V14.01,2013-11-21 09:50:00,
2013-11-21 03:51:00,73.9,73.6,29.84,SE,144,1.0,2.2,99,0.00,,---,0.00,0.00,VWS V14.01,2013-11-21 09:51:00,
2013-11-21 03:55:00,73.5,73.2,29.86,SSE,158,1.0,7.2,99,0.00,,---,0.00,0.00,VWS V14.01,2013-11-21 09:55:00,
2013-11-21 03:56:00,73.9,73.6,29.84,SSE,153,1.0,3.2,99,0.00,,---,0.00,0.00,VWS V14.01,2013-11-21 09:56:00,
2013-11-21 04:00:00,73.5,73.2,29.85,SSE,159,1.0,7.2,99,0.00,,---,0.00,0.00,VWS V14.01,2013-11-21 10:00:00,
2013-11-21 04:01:00,73.9,73.6,29.84,SSE,167,1.0,8.2,99,0.00,,---,0.00,0.00,VWS V14.01,2013-11-21 10:01:00,
2013-11-21 04:05:00,73.5,73.2,29.85,SSE,155,5.0,7.2,99,0.00,,---,0.00,0.00,VWS V14.01,2013-11-21 10:05:00,
2013-11-21 04:06:00,73.9,73.6,29.84,SSE,155,3.0,6.2,99,0.00,,---,0.00,0.00,VWS V14.01,2013-11-21 10:06:00,
2013-11-21 04:10:00,73.5,73.2,29.85,SSE,157,0.0,8.2,99,0.01,,---,0.01,0.00,VWS V14.01,2013-11-21 10:10:00,
2013-11-21 04:11:00,73.9,73.6,29.84,SSE,158,1.0,2.2,99,0.00,,---,0.00,0.00,VWS V14.01,2013-11-21 10:11:00,
2013-11-21 04:15:00,73.5,73.2,29.85,SSE,156,2.0,7.2,99,0.01,,---,0.01,0.00,VWS V14.01,2013-11-21 10:15:00,
2013-11-21 04:16:00,73.9,73.6,29.85,SSE,158,1.0,3.2,99,0.00,,---,0.00,0.00,VWS V14.01,2013-11-21 10:16:00,
2013-11-21 04:20:00,73.5,73.2,29.85,SSE,149,4.0,10.2,99,0.01,,---,0.01,0.00,VWS V14.01,2013-11-21 10:20:00,
2013-11-21 04:21:00,73.7,73.4,29.85,SSE,158,3.0,4.2,99,0.00,,---,0.00,0.00,VWS V14.01,2013-11-21 10:21:00,
2013-11-21 04:25:00,73.3,73.0,29.85,SSE,148,3.0,7.2,99,0.01,,---,0.01,0.00,VWS V14.01,2013-11-21 10:25:00,
2013-11-21 04:26:00,73.7,73.4,29.85,SSE,158,2.0,3.2,99,0.00,,---,0.00,0.00,VWS V14.01,2013-11-21 10:26:00,
2013-11-21 04:30:00,73.3,73.3,29.86,SSE,148,0.0,7.2,100,0.01,,---,0.01,0.00,VWS V14.01,2013-11-21 10:30:00,
2013-11-21 04:31:00,73.5,73.2,29.85,SSE,158,2.0,4.2,99,0.00,,---,0.00,0.00,VWS V14.01,2013-11-21 10:31:00,
2013-11-21 04:35:00,73.3,73.3,29.86,SSE,148,4.0,7.2,100,0.01,,---,0.01,0.00,VWS V14.01,2013-11-21 10:35:00,
2013-11-21 04:36:00,73.5,73.2,29.85,SSE,158,0.0,2.2,99,0.00,,---,0.00,0.00,VWS V14.01,2013-11-21 10:36:00,
2013-11-21 04:40:00,73.3,73.3,29.86,SE,146,1.0,7.2,100,0.01,,---,0.01,0.00,VWS V14.01,2013-11-21 10:40:00,
2013-11-21 04:41:00,73.5,73.2,29.85,SSE,158,2.0,4.2,99,0.00,,---,0.00,0.00,VWS V14.01,2013-11-21 10:41:00,
2013-11-21 04:45:00,73.3,73.3,29.86,SE,146,2.0,8.2,100,0.01,,---,0.01,0.00,VWS V14.01,2013-11-21 10:45:00,
2013-11-21 04:46:00,73.5,73.2,29.85,SSE,158,4.0,5.2,99,0.00,,---,0.00,0.00,VWS V14.01,2013-11-21 10:46:00,
2013-11-21 04:50:00,73.3,73.3,29.86,SE,146,4.0,7.2,100,0.01,,---,0.01,0.00,VWS V14.01,2013-11-21 10:50:00,
2013-11-21 04:51:00,73.5,73.2,29.85,SSE,158,5.0,7.2,99,0.00,,---,0.00,0.00,VWS V14.01,2013-11-21 10:51:00,
2013-11-21 04:55:00,73.3,73.3,29.86,SE,146,5.0,7.2,100,0.01,,---,0.01,0.00,VWS V14.01,2013-11-21 10:55:00,
2013-11-21 04:56:00,73.5,73.2,29.85,SSE,158,1.0,2.2,99,0.00,,---,0.00,0.00,VWS V14.01,2013-11-21 10:56:00,
2013-11-21 05:00:00,73.5,73.5,29.86,SE,146,1.0,6.2,100,0.01,,---,0.01,0.00,VWS V14.01,2013-11-21 11:00:00,
2013-11-21 05:01:00,73.5,73.2,29.85,SSE,159,2.0,3.2,99,0.00,,---,0.00,0.00,VWS V14.01,2013-11-21 11:01:00,
2013-11-21 05:05:00,73.3,73.3,29.86,SE,146,3.0,6.2,100,0.01,,---,0.01,0.00,VWS V14.01,2013-11-21 11:05:00,
2013-11-21 05:06:00,73.5,73.2,29.85,SSE,155,3.0,7.2,99,0.01,,---,0.01,0.00,VWS V14.01,2013-11-21 11:06:00,
2013-11-21 05:10:00,73.2,73.2,29.86,SE,146,3.0,6.2,100,0.01,,---,0.01,0.00,VWS V14.01,2013-11-21 11:10:00,
2013-11-21 05:11:00,73.5,73.2,29.85,SSE,157,1.0,2.2,99,0.01,,---,0.01,0.00,VWS V14.01,2013-11-21 11:11:00,
2013-11-21 05:15:00,73.0,73.0,29.87,SE,146,3.0,7.2,100,0.00,,---,0.01,0.00,VWS V14.01,2013-11-21 11:15:00,
2013-11-21 05:16:00,73.3,73.0,29.85,SSE,156,2.0,4.2,99,0.01,,---,0.01,0.00,VWS V14.01,2013-11-21 11:16:00,
2013-11-21 05:20:00,73.0,73.0,29.87,SE,146,4.0,8.2,100,0.00,,---,0.01,0.00,VWS V14.01,2013-11-21 11:20:00,
2013-11-21 05:21:00,73.5,73.2,29.85,SSE,149,4.0,5.2,99,0.01,,---,0.01,0.00,VWS V14.01,2013-11-21 11:21:00,
2013-11-21 05:25:00,72.8,72.8,29.87,SE,146,4.0,6.2,100,0.00,,---,0.01,0.00,VWS V14.01,2013-11-21 11:25:00,
2013-11-21 05:26:00,73.3,73.0,29.85,SSE,148,1.0,4.2,99,0.01,,---,0.01,0.00,VWS V14.01,2013-11-21 11:26:00,
2013-11-21 05:30:00,72.8,72.8,29.87,SSE,148,5.0,6.2,100,0.00,,---,0.01,0.00,VWS V14.01,2013-11-21 11:30:00,
2013-11-21 05:31:00,73.3,73.3,29.86,SSE,148,1.0,2.2,100,0.01,,---,0.01,0.00,VWS V14.01,2013-11-21 11:31:00,
2013-11-21 05:35:00,72.8,72.8,29.87,SE,146,3.0,6.2,100,0.00,,---,0.01,0.00,VWS V14.01,2013-11-21 11:35:00,
2013-11-21 05:36:00,73.3,73.3,29.86,SSE,148,3.0,5.2,100,0.01,,---,0.01,0.00,VWS V14.01,2013-11-21 11:36:00,
2013-11-21 05:40:00,73.0,73.0,29.87,SE,146,3.0,8.2,100,0.00,,---,0.01,0.00,VWS V14.01,2013-11-21 11:40:00,
2013-11-21 05:41:00,73.3,73.3,29.86,SE,146,1.0,2.2,100,0.01,,---,0.01,0.00,VWS V14.01,2013-11-21 11:41:00,
2013-11-21 05:45:00,73.0,73.0,29.87,SE,145,4.0,8.2,100,0.00,,---,0.01,0.00,VWS V14.01,2013-11-21 11:45:00,
2013-11-21 05:46:00,73.3,73.3,29.86,SE,146,2.0,8.2,100,0.01,,---,0.01,0.00,VWS V14.01,2013-11-21 11:46:00,
2013-11-21 05:50:00,72.8,72.8,29.87,SE,145,1.0,7.2,100,0.00,,---,0.01,0.00,VWS V14.01,2013-11-21 11:50:00,
2013-11-21 05:51:00,73.3,73.3,29.86,SE,146,3.0,5.2,100,0.01,,---,0.01,0.00,VWS V14.01,2013-11-21 11:51:00,
2013-11-21 05:55:00,73.0,73.0,29.87,SE,146,5.0,8.2,100,0.00,,---,0.01,0.00,VWS V14.01,2013-11-21 11:55:00,
2013-11-21 05:56:00,73.3,73.3,29.86,SE,146,3.0,6.2,100,0.01,,---,0.01,0.00,VWS V14.01,2013-11-21 11:56:00,
2013-11-21 06:00:00,73.0,73.0,29.87,SSE,148,0.0,8.2,100,0.00,,---,0.01,5.00,VWS V14.01,2013-11-21 12:00:00,
2013-11-21 06:01:00,73.5,73.5,29.86,SE,146,0.0,2.2,100,0.01,,---,0.01,0.00,VWS V14.01,2013-11-21 12:01:00,
2013-11-21 06:05:00,73.2,73.2,29.87,SSE,149,4.0,8.2,100,0.00,,---,0.01,7.00,VWS V14.01,2013-11-21 12:05:00,
2013-11-21 06:06:00,73.3,73.3,29.86,SE,146,3.0,6.2,100,0.01,,---,0.01,0.00,VWS V14.01,2013-11-21 12:06:00,
2013-11-21 06:10:00,73.2,73.2,29.87,SE,144,2.0,9.2,100,0.00,,---,0.01,9.00,VWS V14.01,2013-11-21 12:10:00,
2013-11-21 06:11:00,73.2,73.2,29.86,SE,146,4.0,5.2,100,0.00,,---,0.01,0.00,VWS V14.01,2013-11-21 12:11:00,
2013-11-21 06:15:00,73.2,73.2,29.88,SE,143,5.0,8.2,100,0.00,,---,0.01,14.00,VWS V14.01,2013-11-21 12:15:00,
2013-11-21 06:16:00,73.0,73.0,29.87,SE,146,4.0,5.2,100,0.00,,---,0.01,0.00,VWS V14.01,2013-11-21 12:16:00,
2013-11-21 06:20:00,73.3,73.3,29.88,SSE,150,6.0,10.2,100,0.00,,---,0.01,18.00,VWS V14.01,2013-11-21 12:20:00,
2013-11-21 06:21:00,73.0,73.0,29.87,SE,146,4.0,8.2,100,0.00,,---,0.01,0.00,VWS V14.01,2013-11-21 12:21:00,
2013-11-21 06:25:00,73.5,73.5,29.88,SE,127,5.0,8.2,100,0.00,,---,0.01,26.00,VWS V14.01,2013-11-21 12:25:00,
2013-11-21 06:26:00,72.8,72.8,29.87,SE,146,4.0,6.2,100,0.00,,---,0.01,0.00,VWS V14.01,2013-11-21 12:26:00,
2013-11-21 06:30:00,73.7,73.7,29.89,SE,142,2.0,10.2,100,0.00,,---,0.01,32.00,VWS V14.01,2013-11-21 12:30:00,
2013-11-21 06:31:00,72.8,72.8,29.87,SSE,148,4.0,6.2,100,0.00,,---,0.01,0.00,VWS V14.01,2013-11-21 12:31:00,
2013-11-21 06:35:00,73.9,73.9,29.89,SE,138,3.0,10.2,100,0.00,,---,0.01,53.00,VWS V14.01,2013-11-21 12:35:00,
2013-11-21 06:36:00,72.8,72.8,29.87,SE,146,3.0,6.2,100,0.00,,---,0.01,0.00,VWS V14.01,2013-11-21 12:36:00,
2013-11-21 06:40:00,74.0,74.0,29.89,SE,136,3.0,7.2,100,0.00,,---,0.01,42.00,VWS V14.01,2013-11-21 12:40:00,
2013-11-21 06:41:00,73.0,73.0,29.87,SE,146,3.0,8.2,100,0.00,,---,0.01,0.00,VWS V14.01,2013-11-21 12:41:00,
2013-11-21 06:45:00,74.2,74.2,29.90,SE,124,5.0,11.2,100,0.00,,---,0.01,53.00,VWS V14.01,2013-11-21 12:45:00,
2013-11-21 06:46:00,73.0,73.0,29.87,SE,145,3.0,8.2,100,0.00,,---,0.01,0.00,VWS V14.01,2013-11-21 12:46:00,
2013-11-21 06:50:00,74.4,74.4,29.90,ESE,123,5.0,10.2,100,0.00,,---,0.01,63.00,VWS V14.01,2013-11-21 12:50:00,
2013-11-21 06:51:00,72.8,72.8,29.87,SE,145,2.0,7.2,100,0.00,,---,0.01,0.00,VWS V14.01,2013-11-21 12:51:00,
2013-11-21 06:55:00,74.2,74.2,29.90,SE,132,6.0,13.2,100,0.00,,---,0.01,58.00,VWS V14.01,2013-11-21 12:55:00,
2013-11-21 06:56:00,73.0,73.0,29.87,SE,146,5.0,8.2,100,0.00,,---,0.01,0.00,VWS V14.01,2013-11-21 12:56:00,
2013-11-21 07:00:00,74.2,74.2,29.89,ESE,122,5.0,10.2,100,0.00,,---,0.01,53.00,VWS V14.01,2013-11-21 13:00:00,
2013-11-21 07:01:00,73.0,73.0,29.87,SSE,148,1.0,8.2,100,0.00,,---,0.01,5.00,VWS V14.01,2013-11-21 13:01:00,
2013-11-21 07:05:00,74.2,74.2,29.89,SSE,147,3.0,12.2,100,0.00,,---,0.01,62.00,VWS V14.01,2013-11-21 13:05:00,
2013-11-21 07:06:00,73.2,73.2,29.87,SSE,149,4.0,8.2,100,0.00,,---,0.01,7.00,VWS V14.01,2013-11-21 13:06:00,
2013-11-21 07:10:00,74.4,74.4,29.89,SSE,153,3.0,8.2,100,0.00,,---,0.01,62.00,VWS V14.01,2013-11-21 13:10:00,
2013-11-21 07:11:00,73.2,73.2,29.87,SE,144,2.0,9.2,100,0.00,,---,0.01,9.00,VWS V14.01,2013-11-21 13:11:00,
2013-11-21 07:15:00,74.6,74.6,29.90,SSE,159,3.0,8.2,100,0.00,,---,0.01,102.00,VWS V14.01,2013-11-21 13:15:00,
2013-11-21 07:16:00,73.2,73.2,29.88,SE,143,5.0,8.2,100,0.00,,---,0.01,14.00,VWS V14.01,2013-11-21 13:16:00,
2013-11-21 07:20:00,74.7,74.7,29.90,SSE,151,6.0,9.2,100,0.00,,---,0.01,102.00,VWS V14.01,2013-11-21 13:20:00,
2013-11-21 07:21:00,73.3,73.3,29.88,SSE,150,6.0,10.2,100,0.00,,---,0.01,18.00,VWS V14.01,2013-11-21 13:21:00,
2013-11-21 07:25:00,75.3,75.3,29.90,SE,145,3.0,10.2,100,0.00,,---,0.01,204.00,VWS V14.01,2013-11-21 13:25:00,
2013-11-21 07:26:00,73.5,73.5,29.88,SE,127,6.0,8.2,100,0.00,,---,0.01,26.00,VWS V14.01,2013-11-21 13:26:00,
2013-11-21 07:30:00,75.6,75.6,29.90,SE,144,6.0,11.2,100,0.00,,---,0.01,216.00,VWS V14.01,2013-11-21 13:30:00,
2013-11-21 07:31:00,73.7,73.7,29.89,SE,142,3.0,10.2,100,0.00,,---,0.01,32.00,VWS V14.01,2013-11-21 13:31:00,
2013-11-21 07:35:00,75.8,75.5,29.90,SSE,155,3.0,11.2,99,0.00,,---,0.01,232.00,VWS V14.01,2013-11-21 13:35:00,
2013-11-21 07:36:00,73.9,73.9,29.89,SE,138,2.0,10.2,100,0.00,,---,0.01,54.00,VWS V14.01,2013-11-21 13:36:00,
2013-11-21 07:40:00,76.3,76.0,29.90,SE,133,4.0,8.2,99,0.00,,---,0.01,248.00,VWS V14.01,2013-11-21 13:40:00,
2013-11-21 07:41:00,74.0,74.0,29.89,SE,136,4.0,7.2,100,0.00,,---,0.01,42.00,VWS V14.01,2013-11-21 13:41:00,
2013-11-21 07:45:00,76.5,76.2,29.91,SE,138,6.0,8.2,99,0.00,,---,0.01,265.00,VWS V14.01,2013-11-21 13:45:00,
2013-11-21 07:46:00,74.2,74.2,29.90,SE,124,5.0,11.2,100,0.00,,---,0.01,53.00,VWS V14.01,2013-11-21 13:46:00,
2013-11-21 07:50:00,76.7,76.1,29.91,SE,146,2.0,12.2,98,0.00,,---,0.01,278.00,VWS V14.01,2013-11-21 13:50:00,
2013-11-21 07:51:00,74.4,74.4,29.90,ESE,123,4.0,10.2,100,0.00,,---,0.01,63.00,VWS V14.01,2013-11-21 13:51:00,
2013-11-21 07:55:00,76.8,76.2,29.91,SE,133,0.0,12.2,98,0.00,,---,0.01,301.00,VWS V14.01,2013-11-21 13:55:00,
2013-11-21 07:56:00,74.2,74.2,29.90,SE,132,7.0,13.2,100,0.00,,---,0.01,58.00,VWS V14.01,2013-11-21 13:56:00,
2013-11-21 08:00:00,76.7,75.8,29.92,SE,144,2.0,14.2,97,0.00,,---,0.01,316.00,VWS V14.01,2013-11-21 14:00:00,
2013-11-21 08:01:00,74.2,74.2,29.90,ESE,122,6.0,10.2,100,0.00,,---,0.01,53.00,VWS V14.01,2013-11-21 14:01:00,
2013-11-21 08:05:00,77.0,75.8,29.92,South,171,5.0,15.2,96,0.00,,---,0.01,336.00,VWS V14.01,2013-11-21 14:05:00,
2013-11-21 08:06:00,74.2,74.2,29.90,SSE,147,2.0,12.2,100,0.00,,---,0.01,62.00,VWS V14.01,2013-11-21 14:06:00,
2013-11-21 08:10:00,77.2,76.0,29.92,SSE,160,5.0,13.2,96,0.00,,---,0.01,353.00,VWS V14.01,2013-11-21 14:10:00,
2013-11-21 08:11:00,74.4,74.4,29.90,SSE,153,4.0,8.2,100,0.00,,---,0.01,62.00,VWS V14.01,2013-11-21 14:11:00,
2013-11-21 08:15:00,77.6,76.1,29.92,SE,137,2.0,15.2,95,0.00,,---,0.01,376.00,VWS V14.01,2013-11-21 14:15:00,
2013-11-21 08:16:00,74.6,74.6,29.90,South,175,5.0,8.2,100,0.00,,---,0.01,102.00,VWS V14.01,2013-11-21 14:16:00,
2013-11-21 08:20:00,77.6,75.7,29.92,SE,145,6.0,14.2,94,0.00,,---,0.01,160.00,VWS V14.01,2013-11-21 14:20:00,
2013-11-21 08:21:00,74.7,74.7,29.90,SSE,151,4.0,9.2,100,0.00,,---,0.01,102.00,VWS V14.01,2013-11-21 14:21:00,
2013-11-21 08:25:00,77.9,76.0,29.92,SSE,147,8.0,12.2,94,0.00,,---,0.01,403.00,VWS V14.01,2013-11-21 14:25:00,
2013-11-21 08:26:00,75.3,75.3,29.90,SE,145,3.0,10.2,100,0.00,,---,0.01,204.00,VWS V14.01,2013-11-21 14:26:00,
2013-11-21 08:30:00,78.5,76.6,29.92,South,178,5.0,13.2,94,0.00,,---,0.01,413.00,VWS V14.01,2013-11-21 14:30:00,
2013-11-21 08:31:00,75.6,75.6,29.90,ESE,116,6.0,11.2,100,0.00,,---,0.01,216.00,VWS V14.01,2013-11-21 14:31:00,
2013-11-21 08:35:00,78.6,76.1,29.92,SE,144,13.0,14.2,92,0.00,,---,0.01,431.00,VWS V14.01,2013-11-21 14:35:00,
2013-11-21 08:36:00,75.8,75.5,29.90,SSE,155,2.0,11.2,99,0.00,,---,0.01,232.00,VWS V14.01,2013-11-21 14:36:00,
2013-11-21 08:40:00,79.0,76.5,29.92,SE,138,12.0,14.2,92,0.00,,---,0.01,446.00,VWS V14.01,2013-11-21 14:40:00,
2013-11-21 08:41:00,76.1,75.8,29.90,SE,133,3.0,8.2,99,0.00,,---,0.01,248.00,VWS V14.01,2013-11-21 14:41:00,
2013-11-21 08:45:00,79.2,76.3,29.92,SSE,151,6.0,17.2,91,0.00,,---,0.01,469.00,VWS V14.01,2013-11-21 14:45:00,
2013-11-21 08:46:00,76.5,76.2,29.91,SE,145,6.0,8.2,99,0.00,,---,0.01,260.00,VWS V14.01,2013-11-21 14:46:00,
2013-11-21 08:50:00,79.2,76.3,29.92,SSE,161,4.0,13.2,91,0.00,,---,0.01,489.00,VWS V14.01,2013-11-21 14:50:00,
2013-11-21 08:51:00,76.7,76.1,29.91,SE,146,6.0,12.2,98,0.00,,---,0.01,278.00,VWS V14.01,2013-11-21 14:51:00,
2013-11-21 08:55:00,79.8,76.3,29.92,SE,146,6.0,14.2,89,0.00,,---,0.01,503.00,VWS V14.01,2013-11-21 14:55:00,
2013-11-21 08:56:00,76.8,76.2,29.91,SE,133,5.0,12.2,98,0.00,,---,0.01,301.00,VWS V14.01,2013-11-21 14:56:00,
2013-11-21 09:00:00,79.8,76.3,29.93,SE,138,6.0,13.2,89,0.00,,---,0.01,520.00,VWS V14.01,2013-11-21 15:00:00,
2013-11-21 09:01:00,76.7,75.8,29.92,SE,144,6.0,14.2,97,0.00,,---,0.01,287.00,VWS V14.01,2013-11-21 15:01:00,
2013-11-21 09:05:00,79.8,75.9,29.93,SSE,152,10.0,15.2,88,0.00,,---,0.01,529.00,VWS V14.01,2013-11-21 15:05:00,
2013-11-21 09:06:00,77.0,76.1,29.92,SSE,153,10.0,15.2,97,0.00,,---,0.01,336.00,VWS V14.01,2013-11-21 15:06:00,
2013-11-21 09:10:00,80.1,76.2,29.93,South,187,6.0,17.2,88,0.00,,---,0.01,554.00,VWS V14.01,2013-11-21 15:10:00,
2013-11-21 09:11:00,77.2,76.0,29.92,South,171,4.0,13.2,96,0.00,,---,0.01,353.00,VWS V14.01,2013-11-21 15:11:00,
2013-11-21 09:15:00,80.5,76.3,29.92,SE,132,9.0,16.2,87,0.00,,---,0.01,573.00,VWS V14.01,2013-11-21 15:15:00,
2013-11-21 09:16:00,77.6,76.1,29.92,SE,137,5.0,15.2,95,0.00,,---,0.01,376.00,VWS V14.01,2013-11-21 15:16:00,
2013-11-21 09:20:00,80.5,76.3,29.92,SSE,159,4.0,17.2,87,0.00,,---,0.01,592.00,VWS V14.01,2013-11-21 15:20:00,
2013-11-21 09:21:00,77.6,75.7,29.92,SSE,158,7.0,14.2,94,0.00,,---,0.01,160.00,VWS V14.01,2013-11-21 15:21:00,
2013-11-21 09:25:00,81.1,76.2,29.92,SSE,168,7.0,17.2,85,0.00,,---,0.01,596.00,VWS V14.01,2013-11-21 15:25:00,
2013-11-21 09:26:00,77.9,76.0,29.92,SE,144,3.0,12.2,94,0.00,,---,0.01,403.00,VWS V14.01,2013-11-21 15:26:00,
2013-11-21 09:30:00,81.1,76.2,29.93,SSE,155,10.0,16.2,85,0.00,,---,0.01,570.00,VWS V14.01,2013-11-21 15:30:00,
2013-11-21 09:31:00,78.5,76.6,29.92,SSE,151,12.0,13.2,94,0.00,,---,0.01,413.00,VWS V14.01,2013-11-21 15:31:00,
2013-11-21 09:35:00,81.1,76.2,29.93,ESE,123,12.0,17.2,85,0.00,,---,0.01,564.00,VWS V14.01,2013-11-21 15:35:00,
2013-11-21 09:36:00,78.6,76.1,29.92,SE,142,5.0,14.2,92,0.00,,---,0.01,427.00,VWS V14.01,2013-11-21 15:36:00,
2013-11-21 09:40:00,81.6,76.7,29.93,SSE,155,7.0,13.2,85,0.00,,---,0.01,561.00,VWS V14.01,2013-11-21 15:40:00,
2013-11-21 09:41:00,79.0,76.5,29.92,South,169,6.0,14.2,92,0.00,,---,0.01,446.00,VWS V14.01,2013-11-21 15:41:00,
2013-11-21 09:45:00,81.8,76.1,29.93,SSE,165,4.0,14.2,83,0.00,,---,0.01,571.00,VWS V14.01,2013-11-21 15:45:00,
2013-11-21 09:46:00,79.2,76.3,29.92,SSE,150,4.0,17.2,91,0.00,,---,0.01,469.00,VWS V14.01,2013-11-21 15:46:00,
2013-11-21 09:50:00,81.6,76.3,29.93,SE,138,11.0,15.2,84,0.00,,---,0.01,577.00,VWS V14.01,2013-11-21 15:50:00,
2013-11-21 09:51:00,79.2,76.3,29.92,South,169,6.0,13.2,91,0.00,,---,0.01,487.00,VWS V14.01,2013-11-21 15:51:00,
2013-11-21 09:55:00,81.4,76.1,29.93,SE,132,3.0,16.2,84,0.00,,---,0.01,585.00,VWS V14.01,2013-11-21 15:55:00,
2013-11-21 09:56:00,79.8,76.6,29.92,SSE,151,10.0,14.2,90,0.00,,---,0.01,503.00,VWS V14.01,2013-11-21 15:56:00,
2013-11-21 10:00:00,81.6,76.3,29.93,SSE,157,4.0,18.2,84,0.00,,---,0.01,594.00,VWS V14.01,2013-11-21 16:00:00,
2013-11-21 10:01:00,79.8,76.3,29.93,ESE,121,8.0,13.2,89,0.00,,---,0.01,520.00,VWS V14.01,2013-11-21 16:01:00,
2013-11-21 10:05:00,82.2,76.9,29.93,SE,138,10.0,14.2,84,0.00,,---,0.01,601.00,VWS V14.01,2013-11-21 16:05:00,
2013-11-21 10:06:00,79.8,75.9,29.93,SE,138,13.0,15.2,88,0.00,,---,0.01,529.00,VWS V14.01,2013-11-21 16:06:00,
2013-11-21 10:10:00,82.0,76.3,29.93,SSW,202,9.0,15.2,83,0.00,,---,0.01,613.00,VWS V14.01,2013-11-21 16:10:00,
2013-11-21 10:11:00,80.1,76.2,29.93,SE,139,9.0,17.2,88,0.00,,---,0.01,550.00,VWS V14.01,2013-11-21 16:11:00,
2013-11-21 10:15:00,82.2,76.9,29.92,SSE,155,8.0,16.2,84,0.00,,---,0.01,612.00,VWS V14.01,2013-11-21 16:15:00,
2013-11-21 10:16:00,80.5,76.3,29.92,SSE,165,12.0,16.2,87,0.00,,---,0.01,573.00,VWS V14.01,2013-11-21 16:16:00,
2013-11-21 10:20:00,82.2,76.5,29.92,SSE,163,9.0,17.2,83,0.00,,---,0.01,387.00,VWS V14.01,2013-11-21 16:20:00,
2013-11-21 10:21:00,80.5,76.3,29.92,SSE,153,2.0,17.2,87,0.00,,---,0.01,592.00,VWS V14.01,2013-11-21 16:21:00,
2013-11-21 10:25:00,81.6,76.3,29.92,SSE,165,7.0,16.2,84,0.00,,---,0.01,705.00,VWS V14.01,2013-11-21 16:25:00,
2013-11-21 10:26:00,81.1,76.2,29.92,SSE,155,6.0,17.2,85,0.00,,---,0.01,596.00,VWS V14.01,2013-11-21 16:26:00,
2013-11-21 10:30:00,82.0,76.7,29.92,SE,141,5.0,15.2,84,0.00,,---,0.01,640.00,VWS V14.01,2013-11-21 16:30:00,
2013-11-21 10:31:00,81.1,76.2,29.93,SSE,153,8.0,16.2,85,0.00,,---,0.01,571.00,VWS V14.01,2013-11-21 16:31:00,
2013-11-21 10:35:00,82.4,76.7,29.92,SSE,155,9.0,19.2,83,0.00,,---,0.01,656.00,VWS V14.01,2013-11-21 16:35:00,
2013-11-21 10:36:00,81.1,76.2,29.93,South,180,7.0,17.2,85,0.00,,---,0.01,564.00,VWS V14.01,2013-11-21 16:36:00,
2013-11-21 10:40:00,82.6,77.3,29.92,South,169,7.0,16.2,84,0.00,,---,0.01,687.00,VWS V14.01,2013-11-21 16:40:00,
2013-11-21 10:41:00,81.6,76.7,29.93,SSE,157,2.0,13.2,85,0.00,,---,0.01,561.00,VWS V14.01,2013-11-21 16:41:00,
2013-11-21 10:45:00,82.8,76.8,29.91,SE,136,14.0,15.2,82,0.00,,---,0.01,742.00,VWS V14.01,2013-11-21 16:45:00,
2013-11-21 10:46:00,81.8,76.1,29.93,SSE,148,8.0,14.2,83,0.00,,---,0.01,571.00,VWS V14.01,2013-11-21 16:46:00,
2013-11-21 10:50:00,82.8,76.8,29.91,SSE,150,15.0,18.2,82,0.00,,---,0.01,737.00,VWS V14.01,2013-11-21 16:50:00,
2013-11-21 10:51:00,81.6,76.3,29.93,SSE,150,12.0,15.2,84,0.00,,---,0.01,577.00,VWS V14.01,2013-11-21 16:51:00,
2013-11-21 10:55:00,82.8,76.8,29.91,SE,138,8.0,16.2,82,0.00,,---,0.01,691.00,VWS V14.01,2013-11-21 16:55:00,
2013-11-21 10:56:00,81.4,76.1,29.93,SE,129,9.0,16.2,84,0.00,,---,0.01,585.00,VWS V14.01,2013-11-21 16:56:00,
2013-11-21 11:00:00,82.8,76.8,29.90,SSE,153,13.0,16.2,82,0.00,,---,0.01,696.00,VWS V14.01,2013-11-21 17:00:00,
2013-11-21 11:01:00,81.4,76.1,29.93,SSE,157,2.0,18.2,84,0.00,,---,0.01,591.00,VWS V14.01,2013-11-21 17:01:00,
2013-11-21 11:05:00,82.0,76.3,29.90,SE,124,8.0,19.2,83,0.00,,---,0.01,652.00,VWS V14.01,2013-11-21 17:05:00,
2013-11-21 11:06:00,82.2,76.5,29.93,SE,137,9.0,14.2,83,0.00,,---,0.01,601.00,VWS V14.01,2013-11-21 17:06:00,
2013-11-21 11:10:00,82.2,76.5,29.90,SSE,167,12.0,17.2,83,0.00,,---,0.01,552.00,VWS V14.01,2013-11-21 17:10:00,
2013-11-21 11:11:00,82.0,76.3,29.93,SSE,149,9.0,15.2,83,0.00,,---,0.01,613.00,VWS V14.01,2013-11-21 17:11:00,
2013-11-21 11:15:00,82.6,76.6,29.90,SE,138,10.0,14.2,82,0.00,,---,0.01,666.00,VWS V14.01,2013-11-21 17:15:00,
2013-11-21 11:16:00,82.2,76.9,29.92,SE,142,11.0,16.2,84,0.00,,---,0.01,612.00,VWS V14.01,2013-11-21 17:16:00,
2013-11-21 11:20:00,82.6,76.6,29.90,SE,124,6.0,15.2,82,0.00,,---,0.01,649.00,VWS V14.01,2013-11-21 17:20:00,
2013-11-21 11:21:00,82.2,76.5,29.92,SE,140,11.0,17.2,83,0.00,,---,0.01,626.00,VWS V14.01,2013-11-21 17:21:00,
2013-11-21 11:25:00,82.4,76.4,29.90,ESE,123,9.0,17.2,82,0.00,,---,0.01,717.00,VWS V14.01,2013-11-21 17:25:00,
2013-11-21 11:26:00,81.6,76.3,29.92,SE,126,11.0,16.2,84,0.00,,---,0.01,705.00,VWS V14.01,2013-11-21 17:26:00,
2013-11-21 11:30:00,82.6,76.6,29.89,SE,145,10.0,14.2,82,0.00,,---,0.01,675.00,VWS V14.01,2013-11-21 17:30:00,
2013-11-21 11:31:00,82.0,76.7,29.92,SSE,147,5.0,15.2,84,0.00,,---,0.01,640.00,VWS V14.01,2013-11-21 17:31:00,
2013-11-21 11:35:00,82.8,76.8,29.89,SE,134,10.0,19.2,82,0.00,,---,0.01,738.00,VWS V14.01,2013-11-21 17:35:00,
2013-11-21 11:36:00,82.4,76.7,29.92,SSE,151,10.0,19.2,83,0.00,,---,0.01,689.00,VWS V14.01,2013-11-21 17:36:00,
2013-11-21 11:40:00,82.0,76.0,29.89,SE,129,13.0,19.2,82,0.00,,---,0.01,262.00,VWS V14.01,2013-11-21 17:40:00,
2013-11-21 11:41:00,82.4,77.1,29.92,SE,131,4.0,16.2,84,0.00,,---,0.01,687.00,VWS V14.01,2013-11-21 17:41:00,
2013-11-21 11:45:00,81.8,76.1,29.88,SE,140,11.0,19.2,83,0.00,,---,0.01,675.00,VWS V14.01,2013-11-21 17:45:00,
2013-11-21 11:46:00,83.0,76.9,29.91,ESE,119,12.0,15.2,82,0.00,,---,0.01,742.00,VWS V14.01,2013-11-21 17:46:00,
2013-11-21 11:50:00,81.8,76.5,29.88,SSE,159,7.0,22.2,84,0.00,,---,0.01,654.00,VWS V14.01,2013-11-21 17:50:00,
2013-11-21 11:51:00,82.8,76.8,29.91,SE,133,9.0,18.2,82,0.00,,---,0.01,737.00,VWS V14.01,2013-11-21 17:51:00,
2013-11-21 11:55:00,82.0,76.3,29.88,ESE,114,5.0,21.2,83,0.00,,---,0.01,684.00,VWS V14.01,2013-11-21 17:55:00,
2013-11-21 11:56:00,82.8,76.8,29.91,SE,138,9.0,16.2,82,0.00,,---,0.01,691.00,VWS V14.01,2013-11-21 17:56:00,
2013-11-21 12:00:00,82.4,76.7,29.88,ESE,113,10.0,15.2,83,0.00,,---,0.01,668.00,VWS V14.01,2013-11-21 18:00:00,
2013-11-21 12:01:00,82.8,76.8,29.90,ESE,121,12.0,16.2,82,0.00,,---,0.01,696.00,VWS V14.01,2013-11-21 18:01:00,
2013-11-21 12:05:00,82.2,76.2,29.88,SSE,163,12.0,19.2,82,0.00,,---,0.01,649.00,VWS V14.01,2013-11-21 18:05:00,
2013-11-21 12:06:00,82.0,76.3,29.90,SE,140,10.0,19.2,83,0.00,,---,0.01,652.00,VWS V14.01,2013-11-21 18:06:00,
2013-11-21 12:10:00,82.2,76.2,29.88,SSE,153,14.0,19.2,82,0.00,,---,0.01,640.00,VWS V14.01,2013-11-21 18:10:00,
2013-11-21 12:11:00,82.2,76.5,29.90,SSE,157,6.0,17.2,83,0.00,,---,0.01,550.00,VWS V14.01,2013-11-21 18:11:00,
2013-11-21 12:15:00,82.8,77.1,29.87,SSE,166,12.0,16.2,83,0.00,,---,0.01,633.00,VWS V14.01,2013-11-21 18:15:00,
2013-11-21 12:16:00,82.6,76.6,29.90,ESE,105,11.0,14.2,82,0.00,,---,0.01,680.00,VWS V14.01,2013-11-21 18:16:00,
2013-11-21 12:20:00,82.4,76.4,29.87,SSE,148,8.0,19.2,82,0.00,,---,0.01,568.00,VWS V14.01,2013-11-21 18:20:00,
2013-11-21 12:21:00,82.6,76.6,29.90,SE,136,10.0,15.2,82,0.00,,---,0.01,649.00,VWS V14.01,2013-11-21 18:21:00,
2013-11-21 12:25:00,81.6,76.3,29.87,ESE,123,12.0,20.2,84,0.00,,---,0.01,628.00,VWS V14.01,2013-11-21 18:25:00,
2013-11-21 12:26:00,82.4,76.4,29.90,SSE,155,5.0,17.2,82,0.00,,---,0.01,717.00,VWS V14.01,2013-11-21 18:26:00,
2013-11-21 12:30:00,81.8,76.8,29.87,ESE,119,9.0,17.2,85,0.00,,---,0.01,619.00,VWS V14.01,2013-11-21 18:30:00,
2013-11-21 12:31:00,82.6,76.6,29.89,SE,134,11.0,14.2,82,0.00,,---,0.01,661.00,VWS V14.01,2013-11-21 18:31:00,
2013-11-21 12:35:00,82.8,77.1,29.87,East,98,12.0,16.2,83,0.00,,---,0.01,603.00,VWS V14.01,2013-11-21 18:35:00,
2013-11-21 12:36:00,82.6,76.6,29.89,SSE,157,11.0,19.2,82,0.00,,---,0.01,738.00,VWS V14.01,2013-11-21 18:36:00,
2013-11-21 12:40:00,82.4,76.4,29.87,ESE,105,7.0,15.2,82,0.00,,---,0.01,591.00,VWS V14.01,2013-11-21 18:40:00,
2013-11-21 12:41:00,82.2,76.2,29.89,SSE,148,14.0,19.2,82,0.00,,---,0.01,262.00,VWS V14.01,2013-11-21 18:41:00,
2013-11-21 12:45:00,82.2,76.9,29.87,East,96,12.0,19.2,84,0.00,,---,0.01,471.00,VWS V14.01,2013-11-21 18:45:00,
2013-11-21 12:46:00,81.8,76.5,29.88,ESE,123,10.0,19.2,84,0.00,,---,0.01,673.00,VWS V14.01,2013-11-21 18:46:00,
2013-11-21 12:50:00,82.2,76.5,29.87,SE,134,13.0,15.2,83,0.00,,---,0.01,589.00,VWS V14.01,2013-11-21 18:50:00,
2013-11-21 12:51:00,81.6,76.3,29.88,SE,136,14.0,22.2,84,0.00,,---,0.01,654.00,VWS V14.01,2013-11-21 18:51:00,
2013-11-21 12:55:00,82.2,76.9,29.87,SE,133,14.0,18.2,84,0.00,,---,0.01,580.00,VWS V14.01,2013-11-21 18:55:00,
2013-11-21 12:56:00,82.0,76.3,29.88,SE,124,5.0,21.2,83,0.00,,---,0.01,684.00,VWS V14.01,2013-11-21 18:56:00,
2013-11-21 13:00:00,82.4,76.7,29.86,SE,132,9.0,19.2,83,0.00,,---,0.01,554.00,VWS V14.01,2013-11-21 19:00:00,
2013-11-21 13:01:00,82.4,76.7,29.88,SE,129,6.0,15.2,83,0.00,,---,0.01,647.00,VWS V14.01,2013-11-21 19:01:00,
2013-11-21 13:05:00,82.4,74.9,29.86,ESE,119,12.0,18.2,78,0.00,,---,0.01,555.00,VWS V14.01,2013-11-21 19:05:00,
2013-11-21 13:06:00,82.4,76.4,29.88,SSE,165,15.0,19.2,82,0.00,,---,0.01,577.00,VWS V14.01,2013-11-21 19:06:00,
2013-11-21 13:10:00,82.2,76.2,29.86,ESE,103,10.0,17.2,82,0.00,,---,0.01,541.00,VWS V14.01,2013-11-21 19:10:00,
2013-11-21 13:11:00,82.4,76.4,29.88,SE,146,4.0,19.2,82,0.00,,---,0.01,640.00,VWS V14.01,2013-11-21 19:11:00,
2013-11-21 13:15:00,81.4,76.1,29.86,SE,126,9.0,19.2,84,0.00,,---,0.01,526.00,VWS V14.01,2013-11-21 19:15:00,
2013-11-21 13:16:00,82.6,76.9,29.87,SE,128,15.0,16.2,83,0.00,,---,0.01,633.00,VWS V14.01,2013-11-21 19:16:00,
2013-11-21 13:20:00,81.8,76.5,29.86,ESE,120,7.0,17.2,84,0.00,,---,0.01,510.00,VWS V14.01,2013-11-21 19:20:00,
2013-11-21 13:21:00,82.4,76.4,29.87,SSE,152,14.0,19.2,82,0.00,,---,0.01,608.00,VWS V14.01,2013-11-21 19:21:00,
2013-11-21 13:25:00,82.0,76.7,29.86,SE,128,3.0,18.2,84,0.00,,---,0.01,513.00,VWS V14.01,2013-11-21 19:25:00,
2013-11-21 13:26:00,81.6,76.3,29.87,SSE,156,10.0,20.2,84,0.00,,---,0.01,628.00,VWS V14.01,2013-11-21 19:26:00,
2013-11-21 13:30:00,81.6,75.9,29.86,SE,134,11.0,17.2,83,0.00,,---,0.01,496.00,VWS V14.01,2013-11-21 19:30:00,
2013-11-21 13:31:00,81.6,76.7,29.87,ESE,111,6.0,17.2,85,0.00,,---,0.01,619.00,VWS V14.01,2013-11-21 19:31:00,
2013-11-21 13:35:00,81.6,76.3,29.86,ESE,109,9.0,17.2,84,0.00,,---,0.01,473.00,VWS V14.01,2013-11-21 19:35:00,
2013-11-21 13:36:00,82.6,76.9,29.87,SE,132,6.0,14.2,83,0.00,,---,0.01,603.00,VWS V14.01,2013-11-21 19:36:00,
2013-11-21 13:40:00,81.8,76.5,29.86,ESE,121,5.0,14.2,84,0.00,,---,0.01,457.00,VWS V14.01,2013-11-21 19:40:00,
2013-11-21 13:41:00,82.6,76.6,29.87,ESE,117,9.0,15.2,82,0.00,,---,0.01,589.00,VWS V14.01,2013-11-21 19:41:00,
2013-11-21 13:45:00,81.6,75.9,29.86,SE,140,18.0,19.2,83,0.00,,---,0.01,448.00,VWS V14.01,2013-11-21 19:45:00,
2013-11-21 13:46:00,82.0,76.3,29.87,East,86,7.0,19.2,83,0.00,,---,0.01,471.00,VWS V14.01,2013-11-21 19:46:00,
2013-11-21 13:50:00,82.0,76.3,29.86,SE,140,6.0,19.2,83,0.00,,---,0.01,434.00,VWS V14.01,2013-11-21 19:50:00,
2013-11-21 13:51:00,82.2,76.5,29.87,SE,132,10.0,15.2,83,0.00,,---,0.01,631.00,VWS V14.01,2013-11-21 19:51:00,
2013-11-21 13:55:00,81.8,76.1,29.86,ESE,120,8.0,19.2,83,0.00,,---,0.01,417.00,VWS V14.01,2013-11-21 19:55:00,
2013-11-21 13:56:00,82.0,76.3,29.87,SSE,153,12.0,18.2,83,0.00,,---,0.01,573.00,VWS V14.01,2013-11-21 19:56:00,
2013-11-21 14:00:00,81.4,75.7,29.86,ESE,112,4.0,20.2,83,0.00,,---,0.01,411.00,VWS V14.01,2013-11-21 20:00:00,
2013-11-21 14:01:00,82.4,76.4,29.86,SE,132,9.0,19.2,82,0.00,,---,0.01,554.00,VWS V14.01,2013-11-21 20:01:00,
2013-11-21 14:05:00,81.2,75.9,29.86,SE,145,11.0,18.2,84,0.00,,---,0.01,399.00,VWS V14.01,2013-11-21 20:05:00,
2013-11-21 14:06:00,82.4,74.9,29.86,SE,140,8.0,18.2,78,0.00,,---,0.01,555.00,VWS V14.01,2013-11-21 20:06:00,
2013-11-21 14:10:00,81.1,76.2,29.86,SE,126,8.0,18.2,85,0.00,,---,0.01,385.00,VWS V14.01,2013-11-21 20:10:00,
2013-11-21 14:11:00,82.2,76.2,29.86,SE,128,14.0,17.2,82,0.00,,---,0.01,555.00,VWS V14.01,2013-11-21 20:11:00,
2013-11-21 14:15:00,81.6,76.3,29.86,SE,136,6.0,20.2,84,0.00,,---,0.01,367.00,VWS V14.01,2013-11-21 20:15:00,
2013-11-21 14:16:00,81.6,75.9,29.86,SE,139,12.0,19.2,83,0.00,,---,0.01,527.00,VWS V14.01,2013-11-21 20:16:00,
2013-11-21 14:20:00,81.2,75.6,29.86,SE,132,5.0,17.2,83,0.00,,---,0.01,353.00,VWS V14.01,2013-11-21 20:20:00,
2013-11-21 14:21:00,81.6,76.3,29.86,SE,138,11.0,17.2,84,0.00,,---,0.01,510.00,VWS V14.01,2013-11-21 20:21:00,
2013-11-21 14:25:00,81.1,76.2,29.86,ESE,108,5.0,15.2,85,0.00,,---,0.01,341.00,VWS V14.01,2013-11-21 20:25:00,
2013-11-21 14:26:00,82.0,76.7,29.86,ESE,115,5.0,18.2,84,0.00,,---,0.01,503.00,VWS V14.01,2013-11-21 20:26:00,
2013-11-21 14:30:00,81.1,75.8,29.86,East,93,6.0,15.2,84,0.00,,---,0.01,329.00,VWS V14.01,2013-11-21 20:30:00,
2013-11-21 14:31:00,81.8,76.1,29.86,SE,130,11.0,17.2,83,0.00,,---,0.01,487.00,VWS V14.01,2013-11-21 20:31:00,
2013-11-21 14:35:00,80.9,76.0,29.86,SE,131,11.0,16.2,85,0.00,,---,0.01,309.00,VWS V14.01,2013-11-21 20:35:00,
2013-11-21 14:36:00,81.6,76.3,29.86,SE,136,9.0,17.2,84,0.00,,---,0.01,476.00,VWS V14.01,2013-11-21 20:36:00,
2013-11-21 14:40:00,81.4,76.1,29.86,ESE,123,5.0,14.2,84,0.00,,---,0.01,295.00,VWS V14.01,2013-11-21 20:40:00,
2013-11-21 14:41:00,81.8,76.5,29.86,SE,135,11.0,14.2,84,0.00,,---,0.01,457.00,VWS V14.01,2013-11-21 20:41:00,
2013-11-21 14:45:00,81.2,75.9,29.86,ESE,114,10.0,17.2,84,0.00,,---,0.01,279.00,VWS V14.01,2013-11-21 20:45:00,
2013-11-21 14:46:00,81.8,76.1,29.86,SE,146,15.0,18.2,83,0.00,,---,0.01,452.00,VWS V14.01,2013-11-21 20:46:00,
2013-11-21 14:50:00,80.9,76.0,29.86,SE,132,10.0,17.2,85,0.00,,---,0.01,267.00,VWS V14.01,2013-11-21 20:50:00,
2013-11-21 14:51:00,82.0,76.3,29.86,SE,137,14.0,19.2,83,0.00,,---,0.01,438.00,VWS V14.01,2013-11-21 20:51:00,
2013-11-21 14:55:00,80.9,76.0,29.86,SSE,147,15.0,16.2,85,0.00,,---,0.01,251.00,VWS V14.01,2013-11-21 20:55:00,
2013-11-21 14:56:00,81.8,76.1,29.86,SE,130,15.0,19.2,83,0.00,,---,0.01,417.00,VWS V14.01,2013-11-21 20:56:00,
2013-11-21 15:00:00,80.7,75.8,29.86,ESE,111,8.0,18.2,85,0.00,,---,0.01,234.00,VWS V14.01,2013-11-21 21:00:00,
2013-11-21 15:01:00,81.6,75.9,29.86,SE,126,11.0,20.2,83,0.00,,---,0.01,413.00,VWS V14.01,2013-11-21 21:01:00,
2013-11-21 15:05:00,81.2,75.9,29.86,SE,145,1.0,14.2,84,0.00,,---,0.01,218.00,VWS V14.01,2013-11-21 21:05:00,
2013-11-21 15:06:00,81.2,75.9,29.86,SE,125,12.0,18.2,84,0.00,,---,0.01,397.00,VWS V14.01,2013-11-21 21:06:00,
2013-11-21 15:10:00,80.9,75.6,29.86,SE,144,9.0,18.2,84,0.00,,---,0.01,199.00,VWS V14.01,2013-11-21 21:10:00,
2013-11-21 15:11:00,81.1,75.8,29.86,ESE,114,11.0,18.2,84,0.00,,---,0.01,390.00,VWS V14.01,2013-11-21 21:11:00,
2013-11-21 15:15:00,80.1,75.5,29.86,SSE,156,11.0,16.2,86,0.00,,---,0.01,179.00,VWS V14.01,2013-11-21 21:15:00,
2013-11-21 15:16:00,81.6,76.3,29.87,SE,129,11.0,20.2,84,0.00,,---,0.01,371.00,VWS V14.01,2013-11-21 21:16:00,
2013-11-21 15:20:00,79.9,75.7,29.86,ESE,104,6.0,17.2,87,0.00,,---,0.01,160.00,VWS V14.01,2013-11-21 21:20:00,
2013-11-21 15:21:00,81.4,76.1,29.87,SE,138,10.0,17.2,84,0.00,,---,0.01,359.00,VWS V14.01,2013-11-21 21:21:00,
2013-11-21 15:25:00,79.8,75.9,29.86,ESE,111,10.0,15.2,88,0.00,,---,0.01,144.00,VWS V14.01,2013-11-21 21:25:00,
2013-11-21 15:26:00,81.1,75.8,29.87,SE,146,7.0,15.2,84,0.00,,---,0.01,346.00,VWS V14.01,2013-11-21 21:26:00,
2013-11-21 15:30:00,79.9,76.0,29.86,SE,136,8.0,16.2,88,0.00,,---,0.01,123.00,VWS V14.01,2013-11-21 21:30:00,
2013-11-21 15:31:00,81.1,75.8,29.86,SE,125,5.0,15.2,84,0.00,,---,0.01,329.00,VWS V14.01,2013-11-21 21:31:00,
2013-11-21 15:35:00,79.4,75.9,29.86,ESE,103,4.0,15.2,89,0.00,,---,0.01,105.00,VWS V14.01,2013-11-21 21:35:00,
2013-11-21 15:36:00,80.9,76.0,29.86,ESE,117,7.0,16.2,85,0.00,,---,0.01,315.00,VWS V14.01,2013-11-21 21:36:00,
2013-11-21 15:40:00,79.0,75.5,29.86,ESE,118,6.0,16.2,89,0.00,,---,0.01,91.00,VWS V14.01,2013-11-21 21:40:00,
2013-11-21 15:41:00,81.4,76.1,29.86,SE,146,4.0,14.2,84,0.00,,---,0.01,297.00,VWS V14.01,2013-11-21 21:41:00,
2013-11-21 15:45:00,79.0,75.8,29.87,East,95,4.0,14.2,90,0.00,,---,0.01,77.00,VWS V14.01,2013-11-21 21:45:00,
2013-11-21 15:46:00,81.2,75.9,29.86,ESE,109,5.0,13.2,84,0.00,,---,0.01,283.00,VWS V14.01,2013-11-21 21:46:00,
2013-11-21 15:50:00,79.2,76.0,29.87,ESE,111,7.0,14.2,90,0.00,,---,0.01,62.00,VWS V14.01,2013-11-21 21:50:00,
2013-11-21 15:51:00,80.9,76.0,29.86,SE,139,6.0,17.2,85,0.00,,---,0.01,267.00,VWS V14.01,2013-11-21 21:51:00,
2013-11-21 15:55:00,79.4,75.9,29.87,ESE,105,7.0,17.2,89,0.00,,---,0.01,49.00,VWS V14.01,2013-11-21 21:55:00,
2013-11-21 15:56:00,80.9,76.0,29.86,SE,129,9.0,14.2,85,0.00,,---,0.01,253.00,VWS V14.01,2013-11-21 21:56:00,
2013-11-21 16:00:00,78.8,75.3,29.87,SE,130,8.0,14.2,89,0.00,,---,0.01,40.00,VWS V14.01,2013-11-21 22:00:00,
2013-11-21 16:01:00,80.7,75.8,29.87,SSE,159,7.0,18.2,85,0.00,,---,0.01,237.00,VWS V14.01,2013-11-21 22:01:00,
2013-11-21 16:05:00,78.6,75.4,29.87,ESE,106,11.0,14.2,90,0.00,,---,0.01,32.00,VWS V14.01,2013-11-21 22:05:00,
2013-11-21 16:06:00,81.2,76.3,29.87,ESE,123,11.0,14.2,85,0.00,,---,0.01,218.00,VWS V14.01,2013-11-21 22:06:00,
2013-11-21 16:10:00,80.9,75.6,29.87,SE,124,10.0,18.2,84,0.00,,---,0.01,200.00,VWS V14.01,2013-11-21 22:10:00,
2013-11-21 16:15:00,80.3,75.0,29.86,SE,136,10.0,16.2,84,0.00,,---,0.01,183.00,VWS V14.01,2013-11-21 22:15:00,
2013-11-21 16:20:00,79.9,75.7,29.86,ESE,107,5.0,17.2,87,0.00,,---,0.01,165.00,VWS V14.01,2013-11-21 22:20:00,
2013-11-21 16:25:00,79.8,75.9,29.86,SE,132,11.0,15.2,88,0.00,,---,0.01,148.00,VWS V14.01,2013-11-21 22:25:00,
2013-11-21 16:30:00,79.9,76.0,29.86,East,100,9.0,16.2,88,0.00,,---,0.01,127.00,VWS V14.01,2013-11-21 22:30:00,
2013-11-21 16:35:00,79.4,75.5,29.86,SE,128,10.0,15.2,88,0.00,,---,0.01,107.00,VWS V14.01,2013-11-21 22:35:00,
2013-11-21 16:40:00,79.2,75.7,29.86,SE,127,9.0,16.2,89,0.00,,---,0.01,91.00,VWS V14.01,2013-11-21 22:40:00,
2013-11-21 16:45:00,79.0,75.5,29.87,SE,134,9.0,14.2,89,0.00,,---,0.01,83.00,VWS V14.01,2013-11-21 22:45:00,
2013-11-21 16:50:00,79.2,76.0,29.87,SE,128,5.0,14.2,90,0.00,,---,0.01,67.00,VWS V14.01,2013-11-21 22:50:00,
2013-11-21 16:55:00,79.4,75.9,29.87,ESE,110,11.0,17.2,89,0.00,,---,0.01,51.00,VWS V14.01,2013-11-21 22:55:00,
2013-11-21 17:00:00,79.0,75.5,29.87,SE,133,9.0,14.2,89,0.00,,---,0.01,42.00,VWS V14.01,2013-11-21 23:00:00,
2013-11-21 17:05:00,78.6,75.4,29.87,ESE,103,10.0,14.2,90,0.00,,---,0.01,33.00,VWS V14.01,2013-11-21 23:05:00,
2013-11-21 17:10:00,78.5,75.3,29.87,ESE,112,11.0,13.2,90,0.00,,---,0.01,25.00,VWS V14.01,2013-11-21 23:10:00,
2013-11-21 17:15:00,78.1,75.3,29.87,ESE,109,11.0,15.2,91,0.00,,---,0.01,19.00,VWS V14.01,2013-11-21 23:15:00,
2013-11-21 17:20:00,78.3,75.5,29.87,SE,131,5.0,13.2,91,0.00,,---,0.01,14.00,VWS V14.01,2013-11-21 23:20:00,
2013-11-21 17:25:00,78.1,75.3,29.87,ESE,120,9.0,13.2,91,0.00,,---,0.01,11.00,VWS V14.01,2013-11-21 23:25:00,
2013-11-21 17:30:00,77.7,75.2,29.88,SE,126,6.0,14.2,92,0.00,,---,0.01,5.00,VWS V14.01,2013-11-21 23:30:00,
2013-11-21 17:35:00,77.6,75.1,29.88,SE,134,6.0,12.2,92,0.00,,---,0.01,0.00,VWS V14.01,2013-11-21 23:35:00,
2013-11-21 17:40:00,77.4,75.2,29.88,ESE,122,10.0,13.2,93,0.00,,---,0.01,0.00,VWS V14.01,2013-11-21 23:40:00,
2013-11-21 17:45:00,77.6,75.4,29.89,East,101,4.0,14.2,93,0.00,,---,0.01,0.00,VWS V14.01,2013-11-21 23:45:00,
2013-11-21 17:50:00,77.7,75.2,29.89,SE,132,5.0,12.2,92,0.00,,---,0.01,0.00,VWS V14.01,2013-11-21 23:50:00,
2013-11-21 17:55:00,77.4,74.9,29.89,SE,130,4.0,13.2,92,0.00,,---,0.01,0.00,VWS V14.01,2013-11-21 23:55:00,
2013-11-21 18:00:00,77.2,75.0,29.89,SE,137,4.0,13.2,93,0.00,,---,0.01,0.00,VWS V14.01,2013-11-22 00:00:00,
2013-11-21 18:05:00,77.2,75.0,29.89,SE,125,5.0,14.2,93,0.00,,---,0.01,0.00,VWS V14.01,2013-11-22 00:05:00,
2013-11-21 18:10:00,77.2,75.0,29.89,ESE,107,8.0,11.2,93,0.00,,---,0.01,0.00,VWS V14.01,2013-11-22 00:10:00,
2013-11-21 18:15:00,77.0,74.8,29.90,SE,136,5.0,14.2,93,0.00,,---,0.01,0.00,VWS V14.01,2013-11-22 00:15:00,
2013-11-21 18:20:00,77.4,75.2,29.90,SE,136,10.0,12.2,93,0.00,,---,0.01,0.00,VWS V14.01,2013-11-22 00:20:00,
2013-11-21 18:25:00,77.2,75.0,29.90,SE,126,5.0,12.2,93,0.00,,---,0.01,0.00,VWS V14.01,2013-11-22 00:25:00,
2013-11-21 18:30:00,76.8,74.9,29.90,SE,126,8.0,12.2,94,0.00,,---,0.01,0.00,VWS V14.01,2013-11-22 00:30:00,
2013-11-21 18:35:00,76.7,74.8,29.90,SE,134,8.0,14.2,94,0.00,,---,0.01,0.00,VWS V14.01,2013-11-22 00:35:00,
2013-11-21 18:40:00,76.7,74.8,29.90,ESE,119,10.0,13.2,94,0.00,,---,0.01,0.00,VWS V14.01,2013-11-22 00:40:00,
2013-11-21 18:45:00,76.7,75.2,29.90,SE,139,10.0,14.2,95,0.00,,---,0.01,0.00,VWS V14.01,2013-11-22 00:45:00,
2013-11-21 18:50:00,76.7,75.2,29.90,ESE,109,8.0,14.2,95,0.00,,---,0.01,0.00,VWS V14.01,2013-11-22 00:50:00,
2013-11-21 18:55:00,77.0,75.5,29.90,ESE,108,4.0,12.2,95,0.00,,---,0.01,0.00,VWS V14.01,2013-11-22 00:55:00,
2013-11-21 19:00:00,77.0,75.1,29.91,SE,130,6.0,14.2,94,0.00,,---,0.01,0.00,VWS V14.01,2013-11-22 01:00:00,
2013-11-21 19:05:00,76.8,74.9,29.91,East,88,5.0,14.2,94,0.00,,---,0.01,0.00,VWS V14.01,2013-11-22 01:05:00,
2013-11-21 19:10:00,76.7,75.2,29.91,ESE,115,7.0,12.2,95,0.00,,---,0.01,0.00,VWS V14.01,2013-11-22 01:10:00,
2013-11-21 19:15:00,76.7,75.2,29.91,ESE,102,10.0,13.2,95,0.00,,---,0.01,0.00,VWS V14.01,2013-11-22 01:15:00,
2013-11-21 19:20:00,76.8,75.3,29.92,SE,135,6.0,13.2,95,0.00,,---,0.01,0.00,VWS V14.01,2013-11-22 01:20:00,
2013-11-21 19:25:00,76.8,75.3,29.92,ESE,103,5.0,12.2,95,0.00,,---,0.01,0.00,VWS V14.01,2013-11-22 01:25:00,
2013-11-21 19:30:00,76.8,75.3,29.92,ESE,110,5.0,13.2,95,0.00,,---,0.01,0.00,VWS V14.01,2013-11-22 01:30:00,
2013-11-21 19:35:00,77.2,75.7,29.92,ESE,112,6.0,12.2,95,0.00,,---,0.01,0.00,VWS V14.01,2013-11-22 01:35:00,
2013-11-21 19:40:00,76.8,74.9,29.92,ESE,120,5.0,10.2,94,0.00,,---,0.01,0.00,VWS V14.01,2013-11-22 01:40:00,
2013-11-21 19:45:00,76.7,75.2,29.92,East,99,4.0,13.2,95,0.00,,---,0.01,0.00,VWS V14.01,2013-11-22 01:45:00,
2013-11-21 19:50:00,76.5,75.0,29.93,ESE,111,5.0,9.2,95,0.00,,---,0.01,0.00,VWS V14.01,2013-11-22 01:50:00,
2013-11-21 19:55:00,76.3,74.8,29.93,ESE,115,8.0,10.2,95,0.00,,---,0.01,0.00,VWS V14.01,2013-11-22 01:55:00,
2013-11-21 20:00:00,76.1,74.6,29.93,SE,130,4.0,11.2,95,0.00,,---,0.01,0.00,VWS V14.01,2013-11-22 02:00:00,
2013-11-21 20:05:00,76.1,74.9,29.94,SE,133,6.0,12.2,96,0.00,,---,0.01,0.00,VWS V14.01,2013-11-22 02:05:00,
2013-11-21 20:08:00,76.1,74.9,29.94,ESE,110,4.0,11.2,96,0.00,,---,0.01,0.00,VWS V14.01,2013-11-22 02:08:00,
2013-11-21 20:09:00,76.3,75.1,29.94,ESE,112,3.0,11.2,96,0.00,,---,0.01,0.00,VWS V14.01,2013-11-22 02:09:00,
2013-11-21 20:10:00,76.3,75.1,29.95,SSE,148,10.0,12.2,96,0.00,,---,0.01,0.00,VWS V14.01,2013-11-22 02:10:00,
2013-11-21 20:14:00,76.5,75.3,29.94,East,90,4.0,9.2,96,0.00,,---,0.01,0.00,VWS V14.01,2013-11-22 02:14:00,
2013-11-21 20:15:00,76.3,75.1,29.95,SE,146,7.0,12.2,96,0.00,,---,0.01,0.00,VWS V14.01,2013-11-22 02:15:00,
2013-11-21 20:19:00,76.5,75.0,29.93,ESE,115,4.0,11.2,95,0.00,,---,0.01,0.00,VWS V14.01,2013-11-22 02:19:00,
2013-11-21 20:20:00,76.1,74.9,29.95,SE,138,3.0,13.2,96,0.00,,---,0.01,0.00,VWS V14.01,2013-11-22 02:20:00,
2013-11-21 20:24:00,76.5,75.3,29.93,SSE,149,5.0,12.2,96,0.00,,---,0.01,0.00,VWS V14.01,2013-11-22 02:24:00,
2013-11-21 20:25:00,76.0,74.8,29.95,SE,139,10.0,13.2,96,0.00,,---,0.01,0.00,VWS V14.01,2013-11-22 02:25:00,
2013-11-21 20:29:00,76.7,75.2,29.93,SE,142,9.0,13.2,95,0.00,,---,0.01,0.00,VWS V14.01,2013-11-22 02:29:00,
2013-11-21 20:30:00,75.8,74.6,29.95,SE,137,6.0,11.2,96,0.00,,---,0.01,0.00,VWS V14.01,2013-11-22 02:30:00,
2013-11-21 20:34:00,76.7,75.2,29.94,ESE,118,5.0,10.2,95,0.00,,---,0.01,0.00,VWS V14.01,2013-11-22 02:34:00,
2013-11-21 20:35:00,75.8,74.9,29.95,ESE,120,7.0,12.2,97,0.00,,---,0.01,0.00,VWS V14.01,2013-11-22 02:35:00,
2013-11-21 20:39:00,76.7,75.2,29.94,SE,127,4.0,12.2,95,0.00,,---,0.01,0.00,VWS V14.01,2013-11-22 02:39:00,
2013-11-21 20:40:00,76.0,74.8,29.95,SE,140,5.0,12.2,96,0.00,,---,0.01,0.00,VWS V14.01,2013-11-22 02:40:00,
2013-11-21 20:44:00,77.0,75.5,29.94,SE,126,7.0,13.2,95,0.00,,---,0.01,0.00,VWS V14.01,2013-11-22 02:44:00,
2013-11-21 20:45:00,76.0,74.8,29.95,SE,130,3.0,11.2,96,0.00,,---,0.01,0.00,VWS V14.01,2013-11-22 02:45:00,
2013-11-21 20:49:00,76.7,75.2,29.94,SE,136,10.0,13.2,95,0.00,,---,0.01,0.00,VWS V14.01,2013-11-22 02:49:00,
2013-11-21 20:50:00,76.0,75.1,29.95,SE,126,6.0,11.2,97,0.00,,---,0.01,0.00,VWS V14.01,2013-11-22 02:50:00,
2013-11-21 20:54:00,76.3,74.8,29.94,SE,142,3.0,11.2,95,0.00,,---,0.01,0.00,VWS V14.01,2013-11-22 02:54:00,
2013-11-21 20:55:00,76.0,74.8,29.95,SE,126,5.0,8.2,96,0.00,,---,0.01,0.00,VWS V14.01,2013-11-22 02:55:00,
2013-11-21 20:59:00,76.3,74.8,29.94,SE,132,2.0,12.2,95,0.00,,---,0.01,0.00,VWS V14.01,2013-11-22 02:59:00,
2013-11-21 21:00:00,76.0,75.1,29.95,SE,129,4.0,8.2,97,0.00,,---,0.01,0.00,VWS V14.01,2013-11-22 03:00:00,
2013-11-21 21:04:00,76.1,74.9,29.95,SE,143,4.0,13.2,96,0.00,,---,0.01,0.00,VWS V14.01,2013-11-22 03:04:00,
2013-11-21 21:05:00,76.0,75.1,29.95,SSE,149,4.0,10.2,97,0.00,,---,0.01,0.00,VWS V14.01,2013-11-22 03:05:00,
2013-11-21 21:09:00,76.3,75.1,29.95,ESE,121,6.0,12.2,96,0.00,,---,0.01,0.00,VWS V14.01,2013-11-22 03:09:00,
2013-11-21 21:10:00,76.0,75.1,29.95,SE,128,6.0,13.2,97,0.00,,---,0.01,0.00,VWS V14.01,2013-11-22 03:10:00,
2013-11-21 21:14:00,76.5,75.3,29.95,SE,127,5.0,12.2,96,0.00,,---,0.01,0.00,VWS V14.01,2013-11-22 03:14:00,
2013-11-21 21:15:00,76.1,74.9,29.95,ESE,109,7.0,11.2,96,0.00,,---,0.01,0.00,VWS V14.01,2013-11-22 03:15:00,
2013-11-21 21:19:00,76.1,74.9,29.95,SSE,148,9.0,12.2,96,0.00,,---,0.01,0.00,VWS V14.01,2013-11-22 03:19:00,
2013-11-21 21:20:00,75.8,74.6,29.95,SE,134,1.0,12.2,96,0.00,,---,0.01,0.00,VWS V14.01,2013-11-22 03:20:00,
2013-11-21 21:24:00,76.0,74.8,29.95,SE,136,6.0,13.2,96,0.00,,---,0.01,0.00,VWS V14.01,2013-11-22 03:24:00,
2013-11-21 21:25:00,75.8,74.9,29.95,SSE,147,6.0,11.2,97,0.00,,---,0.01,0.00,VWS V14.01,2013-11-22 03:25:00,
2013-11-21 21:29:00,75.8,74.6,29.95,ESE,121,4.0,11.2,96,0.00,,---,0.01,0.00,VWS V14.01,2013-11-22 03:29:00,
2013-11-21 21:30:00,75.6,74.7,29.95,SE,136,3.0,9.2,97,0.00,,---,0.01,0.00,VWS V14.01,2013-11-22 03:30:00,
2013-11-21 21:34:00,75.8,74.6,29.95,SE,125,7.0,12.2,96,0.00,,---,0.01,0.00,VWS V14.01,2013-11-22 03:34:00,
2013-11-21 21:35:00,75.6,74.7,29.95,SSE,157,4.0,11.2,97,0.00,,---,0.01,0.00,VWS V14.01,2013-11-22 03:35:00,
2013-11-21 21:39:00,76.0,75.1,29.95,SSE,163,7.0,12.2,97,0.00,,---,0.01,0.00,VWS V14.01,2013-11-22 03:39:00,
2013-11-21 21:40:00,75.6,74.7,29.95,SE,134,4.0,10.2,97,0.00,,---,0.01,0.00,VWS V14.01,2013-11-22 03:40:00,
2013-11-21 21:44:00,76.0,74.8,29.95,SE,145,5.0,11.2,96,0.00,,---,0.01,0.00,VWS V14.01,2013-11-22 03:44:00,
2013-11-21 21:45:00,75.6,74.7,29.95,SE,139,5.0,8.2,97,0.00,,---,0.01,0.00,VWS V14.01,2013-11-22 03:45:00,
2013-11-21 21:49:00,76.0,74.8,29.95,SE,136,6.0,11.2,96,0.00,,---,0.01,0.00,VWS V14.01,2013-11-22 03:49:00,
2013-11-21 21:50:00,75.6,74.7,29.95,SSE,153,2.0,7.2,97,0.00,,---,0.01,0.00,VWS V14.01,2013-11-22 03:50:00,
2013-11-21 21:54:00,76.0,75.1,29.95,ESE,123,2.0,8.2,97,0.00,,---,0.01,0.00,VWS V14.01,2013-11-22 03:54:00,
2013-11-21 21:55:00,75.4,74.5,29.95,SSE,152,2.0,10.2,97,0.00,,---,0.01,0.00,VWS V14.01,2013-11-22 03:55:00,
2013-11-21 21:59:00,76.0,74.8,29.95,SE,134,6.0,8.2,96,0.00,,---,0.01,0.00,VWS V14.01,2013-11-22 03:59:00,
2013-11-21 22:00:00,75.4,74.5,29.95,SSE,148,3.0,8.2,97,0.00,,---,0.01,0.00,VWS V14.01,2013-11-22 04:00:00,
2013-11-21 22:04:00,76.0,75.1,29.95,SE,145,3.0,10.2,97,0.00,,---,0.01,0.00,VWS V14.01,2013-11-22 04:04:00,
2013-11-21 22:05:00,75.3,74.7,29.95,SSE,151,5.0,11.2,98,0.00,,---,0.01,0.00,VWS V14.01,2013-11-22 04:05:00,
2013-11-21 22:09:00,76.0,75.1,29.95,SE,133,5.0,13.2,97,0.00,,---,0.01,0.00,VWS V14.01,2013-11-22 04:09:00,
2013-11-21 22:10:00,75.3,74.7,29.95,SE,146,6.0,10.2,98,0.00,,---,0.01,0.00,VWS V14.01,2013-11-22 04:10:00,
2013-11-21 22:14:00,76.1,75.2,29.95,SE,132,5.0,9.2,97,0.00,,---,0.01,0.00,VWS V14.01,2013-11-22 04:14:00,
2013-11-21 22:15:00,75.3,74.7,29.95,SE,137,6.0,11.2,98,0.00,,---,0.01,0.00,VWS V14.01,2013-11-22 04:15:00,
2013-11-21 22:19:00,76.0,74.8,29.95,SE,136,7.0,10.2,96,0.00,,---,0.01,0.00,VWS V14.01,2013-11-22 04:19:00,
2013-11-21 22:20:00,75.3,74.7,29.95,SE,137,5.0,11.2,98,0.00,,---,0.01,0.00,VWS V14.01,2013-11-22 04:20:00,
2013-11-21 22:24:00,75.8,74.6,29.95,SE,134,10.0,11.2,96,0.00,,---,0.01,0.00,VWS V14.01,2013-11-22 04:24:00,
2013-11-21 22:25:00,75.4,74.8,29.95,SE,134,5.0,8.2,98,0.00,,---,0.01,0.00,VWS V14.01,2013-11-22 04:25:00,
2013-11-21 22:29:00,75.6,74.7,29.95,SSE,148,5.0,8.2,97,0.00,,---,0.01,0.00,VWS V14.01,2013-11-22 04:29:00,
2013-11-21 22:30:00,75.3,74.7,29.96,SE,129,6.0,11.2,98,0.00,,---,0.01,0.00,VWS V14.01,2013-11-22 04:30:00,
2013-11-21 22:34:00,75.6,74.7,29.95,SSE,164,2.0,8.2,97,0.00,,---,0.01,0.00,VWS V14.01,2013-11-22 04:34:00,
2013-11-21 22:35:00,75.3,74.7,29.96,SE,128,2.0,7.2,98,0.00,,---,0.01,0.00,VWS V14.01,2013-11-22 04:35:00,
2013-11-21 22:39:00,75.6,74.7,29.95,SE,144,2.0,9.2,97,0.00,,---,0.01,0.00,VWS V14.01,2013-11-22 04:39:00,
2013-11-21 22:40:00,75.1,74.5,29.96,SE,137,3.0,7.2,98,0.00,,---,0.01,0.00,VWS V14.01,2013-11-22 04:40:00,
2013-11-21 22:44:00,75.6,74.7,29.95,SE,142,3.0,8.2,97,0.00,,---,0.01,0.00,VWS V14.01,2013-11-22 04:44:00,
2013-11-21 22:45:00,75.3,74.7,29.96,SE,144,5.0,8.2,98,0.00,,---,0.01,0.00,VWS V14.01,2013-11-22 04:45:00,
2013-11-21 22:49:00,75.8,74.9,29.95,SE,143,3.0,7.2,97,0.00,,---,0.01,0.00,VWS V14.01,2013-11-22 04:49:00,
2013-11-21 22:50:00,75.3,74.7,29.96,SE,143,2.0,6.2,98,0.00,,---,0.01,0.00,VWS V14.01,2013-11-22 04:50:00,
2013-11-21 22:54:00,75.6,74.7,29.95,SSE,153,3.0,10.2,97,0.00,,---,0.01,0.00,VWS V14.01,2013-11-22 04:54:00,
2013-11-21 22:55:00,75.4,74.8,29.96,SE,141,1.0,8.2,98,0.00,,---,0.01,0.00,VWS V14.01,2013-11-22 04:55:00,
2013-11-21 22:59:00,75.4,74.5,29.95,SSE,149,6.0,8.2,97,0.00,,---,0.01,0.00,VWS V14.01,2013-11-22 04:59:00,
2013-11-21 23:00:00,75.4,74.8,29.95,SE,142,3.0,7.2,98,0.00,,---,0.01,0.00,VWS V14.01,2013-11-22 05:00:00,
2013-11-21 23:01:00,75.4,74.5,29.95,SSE,147,2.0,8.2,97,0.00,,---,0.01,0.00,VWS V14.01,2013-11-22 05:01:00,
2013-11-21 23:05:00,75.4,74.8,29.95,SE,137,1.0,8.2,98,0.00,,---,0.00,0.00,VWS V14.01,2013-11-22 05:05:00,
2013-11-21 23:06:00,75.3,74.7,29.95,SSE,153,4.0,11.2,98,0.00,,---,0.01,0.00,VWS V14.01,2013-11-22 05:06:00,
2013-11-21 23:10:00,75.4,74.8,29.95,SE,138,4.0,8.2,98,0.00,,---,0.00,0.00,VWS V14.01,2013-11-22 05:10:00,
2013-11-21 23:11:00,75.3,74.7,29.95,SSE,147,3.0,10.2,98,0.00,,---,0.01,0.00,VWS V14.01,2013-11-22 05:11:00,
2013-11-21 23:15:00,75.3,74.7,29.95,SE,138,5.0,7.2,98,0.00,,---,0.00,0.00,VWS V14.01,2013-11-22 05:15:00,
2013-11-21 23:16:00,75.3,74.7,29.95,SE,136,5.0,11.2,98,0.00,,---,0.01,0.00,VWS V14.01,2013-11-22 05:16:00,
2013-11-21 23:20:00,75.1,74.5,29.95,SE,138,3.0,6.2,98,0.00,,---,0.00,0.00,VWS V14.01,2013-11-22 05:20:00,
2013-11-21 23:21:00,75.3,74.7,29.95,SE,138,4.0,11.2,98,0.00,,---,0.01,0.00,VWS V14.01,2013-11-22 05:21:00,
2013-11-21 23:25:00,75.1,74.8,29.95,SE,136,3.0,7.2,99,0.00,,---,0.00,0.00,VWS V14.01,2013-11-22 05:25:00,
2013-11-21 23:26:00,75.4,74.8,29.95,SSE,158,6.0,8.2,98,0.00,,---,0.01,0.00,VWS V14.01,2013-11-22 05:26:00,
2013-11-21 23:30:00,74.9,74.6,29.95,SE,136,2.0,5.2,99,0.00,,---,0.00,0.00,VWS V14.01,2013-11-22 05:30:00,
2013-11-21 23:31:00,75.4,74.8,29.96,SE,126,5.0,11.2,98,0.00,,---,0.01,0.00,VWS V14.01,2013-11-22 05:31:00,
2013-11-21 23:35:00,74.9,74.6,29.95,SE,138,6.0,7.2,99,0.00,,---,0.00,0.00,VWS V14.01,2013-11-22 05:35:00,
2013-11-21 23:36:00,75.3,74.7,29.96,SE,128,3.0,7.2,98,0.00,,---,0.01,0.00,VWS V14.01,2013-11-22 05:36:00,
2013-11-21 23:40:00,74.9,74.6,29.95,SE,146,2.0,8.2,99,0.00,,---,0.00,0.00,VWS V14.01,2013-11-22 05:40:00,
2013-11-21 23:41:00,75.1,74.5,29.96,SE,137,3.0,7.2,98,0.00,,---,0.01,0.00,VWS V14.01,2013-11-22 05:41:00,
2013-11-21 23:45:00,74.7,74.4,29.96,SE,143,3.0,8.2,99,0.00,,---,0.00,0.00,VWS V14.01,2013-11-22 05:45:00,
2013-11-21 23:46:00,75.3,74.7,29.96,SE,136,5.0,6.2,98,0.00,,---,0.01,0.00,VWS V14.01,2013-11-22 05:46:00,
2013-11-21 23:50:00,74.9,74.6,29.96,SE,143,0.0,10.2,99,0.00,,---,0.00,0.00,VWS V14.01,2013-11-22 05:50:00,
2013-11-21 23:51:00,75.3,74.7,29.96,SE,143,4.0,6.2,98,0.00,,---,0.01,0.00,VWS V14.01,2013-11-22 05:51:00,
2013-11-21 23:55:00,74.9,74.6,29.96,SE,143,2.0,6.2,99,0.00,,---,0.00,0.00,VWS V14.01,2013-11-22 05:55:00,
2013-11-21 23:56:00,75.3,74.7,29.96,SE,141,3.0,8.2,98,0.00,,---,0.01,0.00,VWS V14.01,2013-11-22 05:56:00,